Terminal Aerodrome Forecast
Issued by NWS Cleveland, OH

Home | Current Version | Previous Version | Text Only | Print | Product List | Glossary On
Versions: 1 2 3 4 5 6 7 8 9 10 11 12 13 14 15 16 17 18 19 20 21 22 23 24 25 26 27 28 29 30 31 32 33 34 35 36 37 38 39 40 41 42 43 44
000
FTUS41 KCLE 061100
TAFCLE
TAF
KCLE 061136Z 0612/0718 02005KT 1/4SM FG OVC001
      TEMPO 0612/0613 1SM BR OVC003
     FM061300 05005KT 3SM BR OVC004
     FM061400 VRB04KT 5SM HZ BKN008 OVC045
     FM061700 01006KT P6SM BKN015 BKN200
     FM061900 02008KT P6SM SCT020
     FM070700 VRB03KT 3SM BR SCT250
     FM071400 VRB03KT P6SM SKC=

USA.gov is the U.S. government's official web portal to all federal, state and local government web resources and services.